RYR9MJ LEMH-EGCC
Flight info
| Callsign | RYR9MJ |
|---|---|
| Flight time | N/A |
| Altitude | 36000 |
| Route | MEROS N853 LUMAS DCT SOFFY DCT MRM DCT MTL DCT ETREK DCT MADOT DCT MOPEM DCT CACHI DCT AVLON DCT OKRIX DCT BRY DCT CLM DCT KOPOR DCT VESAN DCT RATUK DCT SOVAT L613 SANDY UN57 WELIN T420 ELVOS |
| Aircraft | B738/M-SDE2E3FGHIRWXY/LB1 |
Departure
| Time | 2026-04-21 09:27 |
|---|---|
| Airport | Menorca Airport (LEMH) |
Arrival
| Time | N/A |
|---|---|
| Airport | Manchester Airport (EGCC) |
| Time | Latitude | Longitude | Altitude | Speed | Heading |
|---|---|---|---|---|---|
| 2026-04-21 09:06 | 39.86426 | 4.22384 | 285 ft | 0 kts | 99° |
| 2026-04-21 09:19 | 39.86426 | 4.22382 | 285 ft | 2 kts | 99° |
| 2026-04-21 09:19 | 39.86430 | 4.22352 | 286 ft | 2 kts | 99° |
| 2026-04-21 09:20 | 39.86432 | 4.22324 | 289 ft | 4 kts | 73° |
| 2026-04-21 09:20 | 39.86420 | 4.22307 | 291 ft | 4 kts | 9° |
| 2026-04-21 09:20 | 39.86401 | 4.22303 | 287 ft | 0 kts | 9° |
| 2026-04-21 09:23 | 39.86433 | 4.22310 | 287 ft | 8 kts | 9° |
| 2026-04-21 09:23 | 39.86509 | 4.22320 | 288 ft | 13 kts | 348° |
| 2026-04-21 09:23 | 39.86538 | 4.22267 | 289 ft | 11 kts | 281° |
| 2026-04-21 09:24 | 39.86564 | 4.22178 | 293 ft | 11 kts | 333° |
| 2026-04-21 09:24 | 39.86640 | 4.22182 | 294 ft | 12 kts | 8° |
| 2026-04-21 09:24 | 39.86735 | 4.22200 | 296 ft | 16 kts | 8° |
| 2026-04-21 09:24 | 39.86862 | 4.22227 | 300 ft | 20 kts | 9° |
| 2026-04-21 09:25 | 39.86999 | 4.22256 | 301 ft | 20 kts | 9° |
| 2026-04-21 09:25 | 39.87133 | 4.22283 | 305 ft | 19 kts | 9° |
| 2026-04-21 09:25 | 39.87262 | 4.22309 | 308 ft | 18 kts | 8° |
| 2026-04-21 09:25 | 39.87354 | 4.22323 | 312 ft | 10 kts | 354° |
| 2026-04-21 09:26 | 39.87389 | 4.22269 | 312 ft | 8 kts | 283° |
| 2026-04-21 09:26 | 39.87394 | 4.22190 | 310 ft | 9 kts | 259° |
| 2026-04-21 09:26 | 39.87368 | 4.22114 | 310 ft | 9 kts | 245° |
| 2026-04-21 09:26 | 39.87312 | 4.22083 | 309 ft | 11 kts | 188° |
| 2026-04-21 09:27 | 39.87105 | 4.22042 | 303 ft | 64 kts | 189° |
| 2026-04-21 09:27 | 39.86422 | 4.21899 | 302 ft | 132 kts | 189° |
| 2026-04-21 09:27 | 39.85341 | 4.21666 | 464 ft | 172 kts | 190° |
| 2026-04-21 09:27 | 39.84153 | 4.21386 | 1268 ft | 175 kts | 191° |
| 2026-04-21 09:28 | 39.82951 | 4.21108 | 2141 ft | 176 kts | 189° |
| 2026-04-21 09:28 | 39.81645 | 4.20838 | 2571 ft | 206 kts | 189° |
| 2026-04-21 09:28 | 39.80172 | 4.20513 | 3027 ft | 220 kts | 190° |
| 2026-04-21 09:28 | 39.78628 | 4.20186 | 3591 ft | 231 kts | 184° |
| 2026-04-21 09:29 | 39.77043 | 4.20558 | 4321 ft | 237 kts | 152° |
| 2026-04-21 09:29 | 39.75821 | 4.21982 | 5147 ft | 241 kts | 121° |
| 2026-04-21 09:29 | 39.75220 | 4.24022 | 5921 ft | 245 kts | 104° |
| 2026-04-21 09:29 | 39.74822 | 4.26208 | 6667 ft | 251 kts | 103° |
| 2026-04-21 09:30 | 39.74438 | 4.28425 | 7436 ft | 254 kts | 102° |
| 2026-04-21 09:30 | 39.74048 | 4.30685 | 8187 ft | 258 kts | 102° |
| 2026-04-21 09:30 | 39.73682 | 4.32979 | 8974 ft | 260 kts | 95° |
| 2026-04-21 09:30 | 39.73888 | 4.35333 | 9457 ft | 274 kts | 68° |
| 2026-04-21 09:31 | 39.74964 | 4.37462 | 9740 ft | 292 kts | 40° |
| 2026-04-21 09:31 | 39.76725 | 4.38793 | 10301 ft | 301 kts | 18° |
| 2026-04-21 09:31 | 39.78811 | 4.39608 | 10506 ft | 325 kts | 13° |
| 2026-04-21 09:31 | 39.81076 | 4.40346 | 10834 ft | 343 kts | 10° |
| 2026-04-21 09:32 | 39.83466 | 4.40584 | 11488 ft | 347 kts | 357° |
| 2026-04-21 09:32 | 39.85887 | 4.40425 | 12266 ft | 349 kts | 355° |
| 2026-04-21 09:32 | 39.88290 | 4.40215 | 12999 ft | 352 kts | 355° |
| 2026-04-21 09:32 | 39.90776 | 4.40005 | 13742 ft | 356 kts | 355° |
| 2026-04-21 09:33 | 39.93259 | 4.39816 | 14457 ft | 359 kts | 355° |
| 2026-04-21 09:33 | 39.95764 | 4.39646 | 15161 ft | 362 kts | 355° |
| 2026-04-21 09:33 | 39.98296 | 4.39489 | 15853 ft | 366 kts | 355° |
| 2026-04-21 09:33 | 40.00850 | 4.39342 | 16531 ft | 369 kts | 355° |
| 2026-04-21 09:34 | 40.03429 | 4.39199 | 17195 ft | 372 kts | 355° |
| 2026-04-21 09:34 | 40.06025 | 4.39058 | 17850 ft | 375 kts | 355° |
| 2026-04-21 09:34 | 40.08636 | 4.38919 | 18463 ft | 378 kts | 355° |
| 2026-04-21 09:34 | 40.11279 | 4.38778 | 19052 ft | 382 kts | 355° |
| 2026-04-21 09:35 | 40.13938 | 4.38637 | 19634 ft | 385 kts | 355° |
| 2026-04-21 09:35 | 40.16628 | 4.38493 | 20200 ft | 388 kts | 355° |
| 2026-04-21 09:35 | 40.19336 | 4.38348 | 20751 ft | 392 kts | 355° |
| 2026-04-21 09:35 | 40.22073 | 4.38201 | 21284 ft | 395 kts | 355° |
| 2026-04-21 09:36 | 40.24794 | 4.38056 | 21798 ft | 398 kts | 355° |
| 2026-04-21 09:36 | 40.27606 | 4.37905 | 22312 ft | 401 kts | 355° |
| 2026-04-21 09:36 | 40.30405 | 4.37754 | 22809 ft | 404 kts | 354° |
| 2026-04-21 09:36 | 40.33188 | 4.37604 | 23286 ft | 407 kts | 354° |
| 2026-04-21 09:37 | 40.36020 | 4.37452 | 23763 ft | 409 kts | 354° |
| 2026-04-21 09:37 | 40.38877 | 4.37299 | 24211 ft | 412 kts | 354° |
| 2026-04-21 09:37 | 40.41755 | 4.37144 | 24659 ft | 415 kts | 354° |
| 2026-04-21 09:37 | 40.44644 | 4.36988 | 25092 ft | 418 kts | 354° |
| 2026-04-21 09:38 | 40.47568 | 4.36830 | 25517 ft | 420 kts | 354° |
| 2026-04-21 09:38 | 40.50505 | 4.36807 | 25926 ft | 425 kts | 1° |
| 2026-04-21 09:38 | 40.53453 | 4.37362 | 26315 ft | 431 kts | 7° |
| 2026-04-21 09:38 | 40.56408 | 4.38092 | 26724 ft | 433 kts | 7° |
| 2026-04-21 09:39 | 40.59376 | 4.38844 | 27082 ft | 436 kts | 7° |
| 2026-04-21 09:39 | 40.62369 | 4.39594 | 27440 ft | 438 kts | 7° |
| 2026-04-21 09:39 | 40.65367 | 4.40330 | 27806 ft | 440 kts | 7° |
| 2026-04-21 09:39 | 40.68390 | 4.41061 | 28150 ft | 442 kts | 6° |
| 2026-04-21 09:40 | 40.71423 | 4.41785 | 28489 ft | 444 kts | 6° |
| 2026-04-21 09:40 | 40.74473 | 4.42511 | 28817 ft | 446 kts | 6° |
| 2026-04-21 09:40 | 40.77531 | 4.43238 | 29131 ft | 448 kts | 6° |
| 2026-04-21 09:40 | 40.80607 | 4.43971 | 29441 ft | 450 kts | 6° |
| 2026-04-21 09:41 | 40.83698 | 4.44709 | 29749 ft | 452 kts | 6° |
| 2026-04-21 09:41 | 40.86795 | 4.45450 | 30066 ft | 452 kts | 6° |
| 2026-04-21 09:41 | 40.89889 | 4.46192 | 30479 ft | 451 kts | 6° |
| 2026-04-21 09:41 | 40.92965 | 4.46939 | 30916 ft | 449 kts | 6° |
| 2026-04-21 09:42 | 40.96026 | 4.47688 | 31320 ft | 447 kts | 6° |
| 2026-04-21 09:42 | 40.99083 | 4.48438 | 31687 ft | 446 kts | 6° |
| 2026-04-21 09:42 | 41.02139 | 4.49186 | 32060 ft | 445 kts | 6° |
| 2026-04-21 09:42 | 41.05176 | 4.49931 | 32444 ft | 443 kts | 6° |
| 2026-04-21 09:43 | 41.08211 | 4.50675 | 32810 ft | 442 kts | 6° |
| 2026-04-21 09:43 | 41.11233 | 4.51412 | 33114 ft | 442 kts | 6° |
| 2026-04-21 09:43 | 41.14251 | 4.52148 | 33438 ft | 441 kts | 6° |
| 2026-04-21 09:43 | 41.17263 | 4.52883 | 33798 ft | 439 kts | 5° |
| 2026-04-21 09:44 | 41.20262 | 4.53617 | 34136 ft | 437 kts | 5° |
| 2026-04-21 09:44 | 41.23251 | 4.54348 | 34408 ft | 437 kts | 5° |
| 2026-04-21 09:44 | 41.26243 | 4.55080 | 34661 ft | 438 kts | 5° |
| 2026-04-21 09:44 | 41.29242 | 4.55815 | 34954 ft | 437 kts | 5° |
| 2026-04-21 09:45 | 41.32222 | 4.56547 | 35240 ft | 436 kts | 5° |
| 2026-04-21 09:45 | 41.35205 | 4.57279 | 35483 ft | 436 kts | 5° |
| 2026-04-21 09:45 | 41.38184 | 4.58012 | 35711 ft | 436 kts | 5° |
| 2026-04-21 09:45 | 41.41168 | 4.58745 | 35953 ft | 436 kts | 5° |
| 2026-04-21 09:46 | 41.47173 | 4.60223 | 35967 ft | 440 kts | 5° |
| 2026-04-21 09:46 | 41.53175 | 4.61708 | 35953 ft | 435 kts | 5° |
| 2026-04-21 09:47 | 41.59106 | 4.63177 | 35965 ft | 432 kts | 5° |
| 2026-04-21 09:47 | 41.65015 | 4.64641 | 35965 ft | 432 kts | 5° |
| 2026-04-21 09:48 | 41.70914 | 4.66106 | 35963 ft | 431 kts | 5° |
| 2026-04-21 09:48 | 41.76789 | 4.67851 | 35965 ft | 435 kts | 10° |
| 2026-04-21 09:49 | 41.82604 | 4.70181 | 35961 ft | 437 kts | 12° |
| 2026-04-21 09:49 | 41.88415 | 4.72569 | 35957 ft | 437 kts | 11° |
| 2026-04-21 09:50 | 41.92318 | 4.74140 | 35954 ft | 438 kts | 11° |
| 2026-04-21 09:50 | 42.00098 | 4.77227 | 35959 ft | 438 kts | 11° |
| 2026-04-21 09:51 | 42.05952 | 4.79535 | 35959 ft | 439 kts | 11° |
| 2026-04-21 09:51 | 42.11808 | 4.81848 | 35952 ft | 439 kts | 11° |
| 2026-04-21 09:52 | 42.17665 | 4.84168 | 35954 ft | 439 kts | 11° |
| 2026-04-21 09:52 | 42.23523 | 4.86494 | 35953 ft | 438 kts | 11° |
| 2026-04-21 09:53 | 42.29377 | 4.88823 | 35954 ft | 438 kts | 11° |
| 2026-04-21 09:53 | 42.35175 | 4.91136 | 35953 ft | 437 kts | 11° |
| 2026-04-21 09:54 | 42.41011 | 4.93466 | 35953 ft | 437 kts | 11° |
| 2026-04-21 09:54 | 42.46840 | 4.95799 | 35946 ft | 436 kts | 11° |
| 2026-04-21 09:55 | 42.52659 | 4.98131 | 35944 ft | 436 kts | 11° |
| 2026-04-21 09:55 | 42.58476 | 5.00467 | 35943 ft | 436 kts | 11° |
| 2026-04-21 09:56 | 42.64292 | 5.02809 | 35945 ft | 435 kts | 11° |
| 2026-04-21 09:56 | 42.70097 | 5.05152 | 35944 ft | 435 kts | 11° |
| 2026-04-21 09:57 | 42.75895 | 5.07493 | 35945 ft | 435 kts | 11° |
| 2026-04-21 09:57 | 42.81692 | 5.09839 | 35945 ft | 435 kts | 10° |
| 2026-04-21 09:58 | 42.87490 | 5.12191 | 35944 ft | 434 kts | 11° |
| 2026-04-21 09:58 | 42.93279 | 5.14545 | 35946 ft | 434 kts | 11° |
| 2026-04-21 09:59 | 42.99073 | 5.16905 | 35943 ft | 434 kts | 11° |
| 2026-04-21 09:59 | 43.04832 | 5.19248 | 35946 ft | 434 kts | 10° |
| 2026-04-21 10:00 | 43.10628 | 5.21589 | 35944 ft | 435 kts | 10° |
| 2026-04-21 10:00 | 43.16425 | 5.23936 | 35944 ft | 435 kts | 10° |
| 2026-04-21 10:01 | 43.22212 | 5.26286 | 35945 ft | 435 kts | 10° |
| 2026-04-21 10:01 | 43.28016 | 5.28647 | 35943 ft | 434 kts | 10° |
| 2026-04-21 10:02 | 43.36744 | 5.31615 | 35938 ft | 422 kts | 355° |
| 2026-04-21 10:03 | 43.42444 | 5.30598 | 35936 ft | 408 kts | 337° |
| 2026-04-21 10:03 | 43.47828 | 5.28104 | 35935 ft | 408 kts | 336° |
| 2026-04-21 10:04 | 43.53210 | 5.25581 | 35934 ft | 409 kts | 336° |
| 2026-04-21 10:04 | 43.58616 | 5.23082 | 35933 ft | 410 kts | 336° |
| 2026-04-21 10:05 | 43.64028 | 5.20598 | 35944 ft | 410 kts | 336° |
| 2026-04-21 10:05 | 43.69435 | 5.18119 | 35949 ft | 410 kts | 336° |
| 2026-04-21 10:06 | 43.74850 | 5.15632 | 35941 ft | 410 kts | 336° |
| 2026-04-21 10:06 | 43.80260 | 5.13142 | 35944 ft | 410 kts | 336° |
| 2026-04-21 10:07 | 43.85666 | 5.10647 | 35949 ft | 410 kts | 336° |
| 2026-04-21 10:07 | 43.91072 | 5.08149 | 35942 ft | 409 kts | 336° |
| 2026-04-21 10:08 | 43.96471 | 5.05650 | 35947 ft | 409 kts | 336° |
| 2026-04-21 10:08 | 44.01836 | 5.03161 | 35942 ft | 409 kts | 336° |
| 2026-04-21 10:09 | 44.07217 | 5.00662 | 35944 ft | 407 kts | 336° |
| 2026-04-21 10:09 | 44.12590 | 4.98160 | 35941 ft | 407 kts | 336° |
| 2026-04-21 10:10 | 44.17948 | 4.95661 | 35946 ft | 406 kts | 336° |
| 2026-04-21 10:10 | 44.22432 | 4.93563 | 35943 ft | 405 kts | 336° |
| 2026-04-21 10:11 | 44.27765 | 4.91065 | 35942 ft | 405 kts | 336° |
| 2026-04-21 10:11 | 44.33115 | 4.88556 | 35946 ft | 405 kts | 336° |
| 2026-04-21 10:12 | 44.38459 | 4.86044 | 35945 ft | 405 kts | 336° |
| 2026-04-21 10:12 | 44.43750 | 4.83551 | 35958 ft | 404 kts | 336° |
| 2026-04-21 10:13 | 44.49075 | 4.81040 | 36169 ft | 403 kts | 336° |
| 2026-04-21 10:13 | 44.51742 | 4.79780 | 36297 ft | 405 kts | 336° |
| 2026-04-21 10:13 | 44.54412 | 4.78519 | 36422 ft | 407 kts | 337° |
| 2026-04-21 10:13 | 44.57164 | 4.77498 | 36526 ft | 413 kts | 344° |
| 2026-04-21 10:14 | 44.60012 | 4.76842 | 36676 ft | 415 kts | 346° |
| 2026-04-21 10:14 | 44.62864 | 4.76249 | 36799 ft | 416 kts | 346° |
| 2026-04-21 10:14 | 44.65724 | 4.75665 | 36919 ft | 416 kts | 346° |
| 2026-04-21 10:14 | 44.68596 | 4.75069 | 37046 ft | 416 kts | 346° |
| 2026-04-21 10:15 | 44.71451 | 4.74463 | 37161 ft | 415 kts | 346° |
| 2026-04-21 10:15 | 44.74283 | 4.73849 | 37286 ft | 411 kts | 346° |
| 2026-04-21 10:15 | 44.77095 | 4.73232 | 37405 ft | 405 kts | 345° |
| 2026-04-21 10:15 | 44.79862 | 4.72621 | 37516 ft | 401 kts | 345° |
| 2026-04-21 10:16 | 44.82616 | 4.72009 | 37639 ft | 399 kts | 345° |
| 2026-04-21 10:16 | 44.85355 | 4.71397 | 37749 ft | 398 kts | 345° |
| 2026-04-21 10:16 | 44.88082 | 4.70788 | 37878 ft | 397 kts | 345° |
| 2026-04-21 10:17 | 44.93567 | 4.69557 | 37990 ft | 402 kts | 345° |
| 2026-04-21 10:17 | 44.99144 | 4.68308 | 38013 ft | 409 kts | 345° |
| 2026-04-21 10:18 | 45.04787 | 4.67045 | 38009 ft | 413 kts | 346° |
| 2026-04-21 10:18 | 45.10461 | 4.65776 | 37996 ft | 410 kts | 346° |
| 2026-04-21 10:19 | 45.16032 | 4.64527 | 38006 ft | 403 kts | 345° |
| 2026-04-21 10:19 | 45.21565 | 4.63276 | 38021 ft | 402 kts | 345° |
| 2026-04-21 10:20 | 45.27122 | 4.62000 | 38037 ft | 408 kts | 345° |
| 2026-04-21 10:20 | 45.32773 | 4.60698 | 38044 ft | 414 kts | 346° |
| 2026-04-21 10:21 | 45.38443 | 4.59396 | 38037 ft | 417 kts | 346° |
| 2026-04-21 10:21 | 45.44179 | 4.58077 | 38042 ft | 419 kts | 346° |
| 2026-04-21 10:22 | 45.49916 | 4.56756 | 38038 ft | 414 kts | 346° |
| 2026-04-21 10:22 | 45.55547 | 4.55457 | 38042 ft | 408 kts | 346° |
| 2026-04-21 10:23 | 45.61149 | 4.54157 | 38051 ft | 407 kts | 346° |
| 2026-04-21 10:23 | 45.66739 | 4.52857 | 38045 ft | 407 kts | 345° |
| 2026-04-21 10:24 | 45.72337 | 4.51556 | 38053 ft | 408 kts | 346° |
| 2026-04-21 10:24 | 45.77945 | 4.50252 | 38047 ft | 409 kts | 345° |
| 2026-04-21 10:25 | 45.83571 | 4.48941 | 38043 ft | 410 kts | 345° |
| 2026-04-21 10:25 | 45.89208 | 4.47624 | 38051 ft | 411 kts | 346° |
| 2026-04-21 10:26 | 45.94866 | 4.46301 | 38051 ft | 413 kts | 346° |
| 2026-04-21 10:26 | 46.00543 | 4.44971 | 38048 ft | 414 kts | 346° |
| 2026-04-21 10:27 | 46.06233 | 4.43634 | 38049 ft | 415 kts | 346° |
| 2026-04-21 10:27 | 46.11944 | 4.42289 | 38047 ft | 416 kts | 346° |
| 2026-04-21 10:28 | 46.17660 | 4.40940 | 38043 ft | 416 kts | 346° |
| 2026-04-21 10:28 | 46.23374 | 4.39592 | 38050 ft | 416 kts | 346° |
| 2026-04-21 10:29 | 46.29071 | 4.38209 | 38041 ft | 414 kts | 344° |
| 2026-04-21 10:29 | 46.34657 | 4.36352 | 38048 ft | 411 kts | 341° |
| 2026-04-21 10:30 | 46.40198 | 4.34339 | 38044 ft | 410 kts | 341° |
| 2026-04-21 10:30 | 46.45735 | 4.32353 | 38050 ft | 409 kts | 341° |
| 2026-04-21 10:31 | 46.51255 | 4.30400 | 38058 ft | 409 kts | 341° |
| 2026-04-21 10:31 | 46.56781 | 4.28455 | 38060 ft | 408 kts | 341° |
| 2026-04-21 10:32 | 46.62300 | 4.26510 | 38050 ft | 408 kts | 341° |
| 2026-04-21 10:32 | 46.67813 | 4.24563 | 38057 ft | 407 kts | 341° |
| 2026-04-21 10:33 | 46.73282 | 4.22627 | 38057 ft | 407 kts | 342° |
| 2026-04-21 10:33 | 46.78797 | 4.20668 | 38057 ft | 408 kts | 341° |
| 2026-04-21 10:34 | 46.84311 | 4.18707 | 38059 ft | 408 kts | 341° |
| 2026-04-21 10:34 | 46.89830 | 4.16740 | 38056 ft | 408 kts | 342° |
| 2026-04-21 10:35 | 46.95347 | 4.14770 | 38065 ft | 408 kts | 342° |
| 2026-04-21 10:35 | 47.00874 | 4.12791 | 38066 ft | 409 kts | 342° |
| 2026-04-21 10:36 | 47.06398 | 4.10796 | 38070 ft | 408 kts | 340° |
| 2026-04-21 10:36 | 47.11686 | 4.07926 | 38071 ft | 404 kts | 334° |
| 2026-04-21 10:37 | 47.16883 | 4.04748 | 38071 ft | 405 kts | 334° |
| 2026-04-21 10:37 | 47.22101 | 4.01595 | 38075 ft | 406 kts | 334° |
| 2026-04-21 10:38 | 47.27342 | 3.98464 | 38078 ft | 406 kts | 334° |
| 2026-04-21 10:38 | 47.32584 | 3.95340 | 38088 ft | 406 kts | 334° |
| 2026-04-21 10:39 | 47.37816 | 3.92215 | 38101 ft | 406 kts | 334° |
| 2026-04-21 10:39 | 47.43057 | 3.89079 | 38102 ft | 406 kts | 334° |
| 2026-04-21 10:40 | 47.48261 | 3.85957 | 38104 ft | 406 kts | 334° |
| 2026-04-21 10:40 | 47.53493 | 3.82812 | 38106 ft | 406 kts | 334° |
| 2026-04-21 10:41 | 47.58725 | 3.79667 | 38109 ft | 406 kts | 334° |
| 2026-04-21 10:41 | 47.63963 | 3.76527 | 38119 ft | 406 kts | 334° |
| 2026-04-21 10:42 | 47.69192 | 3.73388 | 38120 ft | 405 kts | 334° |
| 2026-04-21 10:42 | 47.74416 | 3.70242 | 38126 ft | 405 kts | 334° |
| 2026-04-21 10:43 | 47.79634 | 3.67091 | 38129 ft | 405 kts | 334° |
| 2026-04-21 10:43 | 47.84846 | 3.63938 | 38147 ft | 404 kts | 334° |
| 2026-04-21 10:44 | 47.90058 | 3.60777 | 38130 ft | 405 kts | 334° |
| 2026-04-21 10:44 | 47.95267 | 3.57614 | 38150 ft | 404 kts | 334° |
| 2026-04-21 10:45 | 48.00477 | 3.54431 | 38147 ft | 404 kts | 334° |
| 2026-04-21 10:45 | 48.05673 | 3.51231 | 38147 ft | 404 kts | 334° |
| 2026-04-21 10:46 | 48.10875 | 3.48022 | 38149 ft | 404 kts | 334° |
| 2026-04-21 10:46 | 48.16037 | 3.44834 | 38154 ft | 404 kts | 334° |
| 2026-04-21 10:47 | 48.21268 | 3.41594 | 38155 ft | 404 kts | 334° |
| 2026-04-21 10:47 | 48.26440 | 3.38387 | 38158 ft | 405 kts | 334° |
| 2026-04-21 10:48 | 48.31648 | 3.35148 | 38153 ft | 405 kts | 334° |
| 2026-04-21 10:48 | 48.36859 | 3.31901 | 38171 ft | 406 kts | 334° |
| 2026-04-21 10:49 | 48.42077 | 3.28637 | 38166 ft | 406 kts | 334° |
| 2026-04-21 10:49 | 48.47291 | 3.25320 | 38167 ft | 407 kts | 334° |
| 2026-04-21 10:50 | 48.51629 | 3.22546 | 38163 ft | 408 kts | 334° |
| 2026-04-21 10:50 | 48.57744 | 3.18633 | 38170 ft | 409 kts | 334° |
| 2026-04-21 10:51 | 48.62977 | 3.15279 | 38175 ft | 409 kts | 334° |
| 2026-04-21 10:51 | 48.68221 | 3.11910 | 38179 ft | 409 kts | 334° |
| 2026-04-21 10:52 | 48.73464 | 3.08536 | 38174 ft | 410 kts | 334° |
| 2026-04-21 10:52 | 48.78712 | 3.05147 | 38177 ft | 410 kts | 334° |
| 2026-04-21 10:53 | 48.83957 | 3.01749 | 38180 ft | 410 kts | 333° |
| 2026-04-21 10:53 | 48.88942 | 2.97632 | 38182 ft | 407 kts | 327° |
| 2026-04-21 10:54 | 48.93833 | 2.93292 | 38188 ft | 407 kts | 327° |
| 2026-04-21 10:54 | 48.98725 | 2.88964 | 38184 ft | 407 kts | 327° |
| 2026-04-21 10:55 | 49.03621 | 2.84648 | 38182 ft | 407 kts | 328° |
| 2026-04-21 10:55 | 49.08527 | 2.80322 | 38185 ft | 407 kts | 328° |
| 2026-04-21 10:56 | 49.13402 | 2.76016 | 38183 ft | 408 kts | 328° |
| 2026-04-21 10:56 | 49.18306 | 2.71674 | 38183 ft | 408 kts | 328° |
| 2026-04-21 10:57 | 49.23216 | 2.67317 | 38192 ft | 408 kts | 328° |
| 2026-04-21 10:57 | 49.28119 | 2.62953 | 38196 ft | 408 kts | 328° |
| 2026-04-21 10:58 | 49.33030 | 2.58575 | 38194 ft | 409 kts | 328° |
| 2026-04-21 10:58 | 49.37149 | 2.54895 | 38201 ft | 409 kts | 328° |
| 2026-04-21 10:59 | 49.42062 | 2.50495 | 38210 ft | 410 kts | 328° |
| 2026-04-21 10:59 | 49.46986 | 2.46075 | 38196 ft | 410 kts | 328° |
| 2026-04-21 11:00 | 49.51960 | 2.41878 | 38203 ft | 412 kts | 335° |
| 2026-04-21 11:00 | 49.57452 | 2.39259 | 38206 ft | 414 kts | 341° |
| 2026-04-21 11:01 | 49.62994 | 2.36814 | 38216 ft | 414 kts | 341° |
| 2026-04-21 11:01 | 49.68527 | 2.34330 | 38224 ft | 414 kts | 341° |
| 2026-04-21 11:02 | 49.76818 | 2.30555 | 38215 ft | 414 kts | 341° |
| 2026-04-21 11:02 | 49.82337 | 2.28030 | 38226 ft | 413 kts | 341° |
| 2026-04-21 11:03 | 49.87852 | 2.25502 | 38240 ft | 413 kts | 341° |
| 2026-04-21 11:03 | 49.93371 | 2.22966 | 38242 ft | 413 kts | 341° |
| 2026-04-21 11:04 | 49.98885 | 2.20424 | 38234 ft | 413 kts | 341° |
| 2026-04-21 11:04 | 50.04400 | 2.17877 | 38235 ft | 413 kts | 341° |
| 2026-04-21 11:05 | 50.09915 | 2.15324 | 38245 ft | 414 kts | 341° |
| 2026-04-21 11:05 | 50.15439 | 2.12761 | 38246 ft | 414 kts | 341° |
| 2026-04-21 11:06 | 50.20966 | 2.10190 | 38247 ft | 414 kts | 341° |
| 2026-04-21 11:06 | 50.26489 | 2.07611 | 38250 ft | 415 kts | 341° |
| 2026-04-21 11:07 | 50.32020 | 2.05029 | 38257 ft | 415 kts | 341° |
| 2026-04-21 11:07 | 50.37356 | 2.01743 | 38264 ft | 412 kts | 328° |
| 2026-04-21 11:08 | 50.41912 | 1.96375 | 38267 ft | 410 kts | 318° |
| 2026-04-21 11:08 | 50.46181 | 1.90457 | 38266 ft | 410 kts | 318° |
| 2026-04-21 11:09 | 50.50460 | 1.84549 | 38266 ft | 410 kts | 318° |
| 2026-04-21 11:09 | 50.54733 | 1.78684 | 38265 ft | 411 kts | 318° |
| 2026-04-21 11:10 | 50.59041 | 1.72772 | 38268 ft | 411 kts | 318° |
| 2026-04-21 11:10 | 50.63350 | 1.66846 | 38265 ft | 412 kts | 318° |
| 2026-04-21 11:11 | 50.67670 | 1.60885 | 38265 ft | 413 kts | 318° |
| 2026-04-21 11:11 | 50.71982 | 1.54918 | 38269 ft | 413 kts | 318° |
| 2026-04-21 11:12 | 50.76296 | 1.48935 | 38271 ft | 413 kts | 318° |
| 2026-04-21 11:12 | 50.80607 | 1.42946 | 38274 ft | 413 kts | 318° |
| 2026-04-21 11:13 | 50.84920 | 1.36943 | 38282 ft | 413 kts | 318° |
| 2026-04-21 11:13 | 50.89236 | 1.30923 | 38289 ft | 413 kts | 318° |
| 2026-04-21 11:14 | 50.93548 | 1.24885 | 38286 ft | 414 kts | 318° |
| 2026-04-21 11:14 | 50.97858 | 1.18835 | 38295 ft | 414 kts | 318° |
| 2026-04-21 11:15 | 51.02172 | 1.12768 | 38288 ft | 415 kts | 318° |
| 2026-04-21 11:15 | 51.06489 | 1.06681 | 38295 ft | 415 kts | 318° |
| 2026-04-21 11:16 | 51.10685 | 1.00355 | 38301 ft | 415 kts | 315° |